sensor_id;sensor_type;location;lat;lon;timestamp;temperature;humidity
20066;DHT22;10193;48.884;9.182;2024-03-06T00:01:55;9.40;68.60
20066;DHT22;10193;48.884;9.182;2024-03-06T00:04:21;9.40;68.70
20066;DHT22;10193;48.884;9.182;2024-03-06T00:06:49;9.30;68.60
20066;DHT22;10193;48.884;9.182;2024-03-06T00:09:17;9.40;68.60
20066;DHT22;10193;48.884;9.182;2024-03-06T00:11:44;9.40;68.60
20066;DHT22;10193;48.884;9.182;2024-03-06T00:14:11;9.40;68.60
20066;DHT22;10193;48.884;9.182;2024-03-06T00:16:37;9.40;68.60
20066;DHT22;10193;48.884;9.182;2024-03-06T00:19:04;9.40;68.60
20066;DHT22;10193;48.884;9.182;2024-03-06T00:21:31;9.40;68.60
20066;DHT22;10193;48.884;9.182;2024-03-06T00:23:59;9.30;68.40
20066;DHT22;10193;48.884;9.182;2024-03-06T00:26:25;9.30;68.40
20066;DHT22;10193;48.884;9.182;2024-03-06T00:28:52;9.30;68.40
20066;DHT22;10193;48.884;9.182;2024-03-06T00:31:19;9.30;68.40
20066;DHT22;10193;48.884;9.182;2024-03-06T00:33:45;9.30;69.00
20066;DHT22;10193;48.884;9.182;2024-03-06T00:36:12;9.30;68.40
20066;DHT22;10193;48.884;9.182;2024-03-06T00:38:39;9.30;68.40
20066;DHT22;10193;48.884;9.182;2024-03-06T00:41:07;9.30;68.50
20066;DHT22;10193;48.884;9.182;2024-03-06T00:43:34;9.30;68.60
20066;DHT22;10193;48.884;9.182;2024-03-06T00:46:00;9.20;68.60
20066;DHT22;10193;48.884;9.182;2024-03-06T00:48:27;9.20;68.60
20066;DHT22;10193;48.884;9.182;2024-03-06T00:50:54;9.20;68.70
20066;DHT22;10193;48.884;9.182;2024-03-06T00:53:20;9.20;69.40
20066;DHT22;10193;48.884;9.182;2024-03-06T00:55:47;9.30;68.80
20066;DHT22;10193;48.884;9.182;2024-03-06T00:58:15;9.20;68.70
20066;DHT22;10193;48.884;9.182;2024-03-06T01:00:42;9.20;68.70
20066;DHT22;10193;48.884;9.182;2024-03-06T01:03:09;9.20;68.60
20066;DHT22;10193;48.884;9.182;2024-03-06T01:05:36;9.20;68.60
20066;DHT22;10193;48.884;9.182;2024-03-06T01:08:03;9.20;68.70
20066;DHT22;10193;48.884;9.182;2024-03-06T01:10:30;9.20;68.70
20066;DHT22;10193;48.884;9.182;2024-03-06T01:12:57;9.20;68.60
20066;DHT22;10193;48.884;9.182;2024-03-06T01:15:25;9.20;68.60
20066;DHT22;10193;48.884;9.182;2024-03-06T01:17:52;9.20;68.60
20066;DHT22;10193;48.884;9.182;2024-03-06T01:20:18;9.20;68.60
20066;DHT22;10193;48.884;9.182;2024-03-06T01:22:45;9.20;68.80
20066;DHT22;10193;48.884;9.182;2024-03-06T01:25:12;9.20;68.70
20066;DHT22;10193;48.884;9.182;2024-03-06T01:27:39;9.20;68.60
20066;DHT22;10193;48.884;9.182;2024-03-06T01:30:07;9.20;68.60
20066;DHT22;10193;48.884;9.182;2024-03-06T01:32:35;9.20;68.60
20066;DHT22;10193;48.884;9.182;2024-03-06T01:35:03;9.20;68.50
20066;DHT22;10193;48.884;9.182;2024-03-06T01:37:30;9.20;68.60
20066;DHT22;10193;48.884;9.182;2024-03-06T01:39:57;9.20;68.60
20066;DHT22;10193;48.884;9.182;2024-03-06T01:42:24;9.20;68.60
20066;DHT22;10193;48.884;9.182;2024-03-06T01:44:50;9.10;69.30
20066;DHT22;10193;48.884;9.182;2024-03-06T01:47:17;9.10;68.40
20066;DHT22;10193;48.884;9.182;2024-03-06T01:49:46;9.10;68.50
20066;DHT22;10193;48.884;9.182;2024-03-06T01:52:14;9.10;68.60
20066;DHT22;10193;48.884;9.182;2024-03-06T01:54:43;9.10;68.70
20066;DHT22;10193;48.884;9.182;2024-03-06T01:57:11;9.10;68.80
20066;DHT22;10193;48.884;9.182;2024-03-06T01:59:39;9.10;68.70
20066;DHT22;10193;48.884;9.182;2024-03-06T02:02:06;9.10;68.80
20066;DHT22;10193;48.884;9.182;2024-03-06T02:04:34;9.10;68.80
20066;DHT22;10193;48.884;9.182;2024-03-06T02:07:02;9.10;68.70
20066;DHT22;10193;48.884;9.182;2024-03-06T02:09:29;9.00;68.60
20066;DHT22;10193;48.884;9.182;2024-03-06T02:11:55;9.00;68.60
20066;DHT22;10193;48.884;9.182;2024-03-06T02:14:23;9.00;68.70
20066;DHT22;10193;48.884;9.182;2024-03-06T02:16:49;9.00;68.80
20066;DHT22;10193;48.884;9.182;2024-03-06T02:19:16;9.00;68.90
20066;DHT22;10193;48.884;9.182;2024-03-06T02:21:44;9.00;68.90
20066;DHT22;10193;48.884;9.182;2024-03-06T02:24:11;9.00;68.90
20066;DHT22;10193;48.884;9.182;2024-03-06T02:26:39;9.00;68.90
20066;DHT22;10193;48.884;9.182;2024-03-06T02:29:06;9.00;69.00
20066;DHT22;10193;48.884;9.182;2024-03-06T02:31:33;9.00;68.90
20066;DHT22;10193;48.884;9.182;2024-03-06T02:33:59;9.00;68.90
20066;DHT22;10193;48.884;9.182;2024-03-06T02:36:30;8.90;68.80
20066;DHT22;10193;48.884;9.182;2024-03-06T02:38:59;8.90;68.90
20066;DHT22;10193;48.884;9.182;2024-03-06T02:41:26;8.90;69.00
20066;DHT22;10193;48.884;9.182;2024-03-06T02:43:52;8.90;69.00
20066;DHT22;10193;48.884;9.182;2024-03-06T02:46:19;8.90;69.00
20066;DHT22;10193;48.884;9.182;2024-03-06T02:48:46;8.90;69.10
20066;DHT22;10193;48.884;9.182;2024-03-06T02:51:18;8.90;69.20
20066;DHT22;10193;48.884;9.182;2024-03-06T02:53:44;8.90;69.20
20066;DHT22;10193;48.884;9.182;2024-03-06T02:56:17;8.90;69.10
20066;DHT22;10193;48.884;9.182;2024-03-06T02:58:43;8.90;69.20
20066;DHT22;10193;48.884;9.182;2024-03-06T03:01:10;8.80;69.10
20066;DHT22;10193;48.884;9.182;2024-03-06T03:03:40;8.80;69.20
20066;DHT22;10193;48.884;9.182;2024-03-06T03:06:07;8.80;69.30
20066;DHT22;10193;48.884;9.182;2024-03-06T03:08:33;8.80;69.30
20066;DHT22;10193;48.884;9.182;2024-03-06T03:11:00;8.80;69.30
20066;DHT22;10193;48.884;9.182;2024-03-06T03:13:28;8.80;69.50
20066;DHT22;10193;48.884;9.182;2024-03-06T03:15:55;8.80;70.20
20066;DHT22;10193;48.884;9.182;2024-03-06T03:18:22;8.80;69.50
20066;DHT22;10193;48.884;9.182;2024-03-06T03:20:49;8.80;69.50
20066;DHT22;10193;48.884;9.182;2024-03-06T03:23:16;8.80;69.70
20066;DHT22;10193;48.884;9.182;2024-03-06T03:25:47;8.80;69.60
20066;DHT22;10193;48.884;9.182;2024-03-06T03:28:14;8.80;69.70
20066;DHT22;10193;48.884;9.182;2024-03-06T03:30:42;8.90;69.80
20066;DHT22;10193;48.884;9.182;2024-03-06T03:33:10;8.90;69.70
20066;DHT22;10193;48.884;9.182;2024-03-06T03:35:37;8.90;69.70
20066;DHT22;10193;48.884;9.182;2024-03-06T03:38:03;8.90;69.70
20066;DHT22;10193;48.884;9.182;2024-03-06T03:40:30;8.90;69.70
20066;DHT22;10193;48.884;9.182;2024-03-06T03:42:58;8.90;69.70
20066;DHT22;10193;48.884;9.182;2024-03-06T03:45:31;8.90;69.80
20066;DHT22;10193;48.884;9.182;2024-03-06T03:47:59;8.80;69.70
20066;DHT22;10193;48.884;9.182;2024-03-06T03:50:28;8.90;69.70
20066;DHT22;10193;48.884;9.182;2024-03-06T03:52:54;8.90;69.70
20066;DHT22;10193;48.884;9.182;2024-03-06T03:55:23;8.80;69.70
20066;DHT22;10193;48.884;9.182;2024-03-06T03:57:50;8.80;69.80
20066;DHT22;10193;48.884;9.182;2024-03-06T04:00:18;8.80;69.70
20066;DHT22;10193;48.884;9.182;2024-03-06T04:02:44;8.80;69.80
20066;DHT22;10193;48.884;9.182;2024-03-06T04:05:12;8.80;69.80
20066;DHT22;10193;48.884;9.182;2024-03-06T04:07:40;8.80;69.80
20066;DHT22;10193;48.884;9.182;2024-03-06T04:10:07;8.80;69.80
20066;DHT22;10193;48.884;9.182;2024-03-06T04:12:36;8.80;69.80
20066;DHT22;10193;48.884;9.182;2024-03-06T04:15:04;8.80;69.70
20066;DHT22;10193;48.884;9.182;2024-03-06T04:17:30;8.80;69.80
20066;DHT22;10193;48.884;9.182;2024-03-06T04:19:57;8.70;69.60
20066;DHT22;10193;48.884;9.182;2024-03-06T04:22:25;8.70;69.60
20066;DHT22;10193;48.884;9.182;2024-03-06T04:24:52;8.70;69.60
20066;DHT22;10193;48.884;9.182;2024-03-06T04:27:20;8.70;69.60
20066;DHT22;10193;48.884;9.182;2024-03-06T04:29:47;8.60;69.50
20066;DHT22;10193;48.884;9.182;2024-03-06T04:32:13;8.60;69.60
20066;DHT22;10193;48.884;9.182;2024-03-06T04:34:40;8.60;69.80
20066;DHT22;10193;48.884;9.182;2024-03-06T04:37:07;8.60;69.80
20066;DHT22;10193;48.884;9.182;2024-03-06T04:39:35;8.50;69.80
20066;DHT22;10193;48.884;9.182;2024-03-06T04:42:02;8.50;69.90
20066;DHT22;10193;48.884;9.182;2024-03-06T04:44:29;8.50;70.00
20066;DHT22;10193;48.884;9.182;2024-03-06T04:46:56;8.50;70.00
20066;DHT22;10193;48.884;9.182;2024-03-06T04:49:23;8.50;70.10
20066;DHT22;10193;48.884;9.182;2024-03-06T04:51:49;8.50;70.20
20066;DHT22;10193;48.884;9.182;2024-03-06T04:54:16;8.50;70.40
20066;DHT22;10193;48.884;9.182;2024-03-06T04:56:44;8.50;70.40
20066;DHT22;10193;48.884;9.182;2024-03-06T04:59:11;8.50;70.40
20066;DHT22;10193;48.884;9.182;2024-03-06T05:01:37;8.50;70.40
20066;DHT22;10193;48.884;9.182;2024-03-06T05:04:04;8.50;70.40
20066;DHT22;10193;48.884;9.182;2024-03-06T05:06:31;8.50;70.40
20066;DHT22;10193;48.884;9.182;2024-03-06T05:08:57;8.50;70.40
20066;DHT22;10193;48.884;9.182;2024-03-06T05:11:24;8.50;70.40
20066;DHT22;10193;48.884;9.182;2024-03-06T05:13:52;8.40;70.40
20066;DHT22;10193;48.884;9.182;2024-03-06T05:16:19;8.40;70.50
20066;DHT22;10193;48.884;9.182;2024-03-06T05:18:47;8.40;70.60
20066;DHT22;10193;48.884;9.182;2024-03-06T05:21:15;8.40;70.50
20066;DHT22;10193;48.884;9.182;2024-03-06T05:23:42;8.40;70.50
20066;DHT22;10193;48.884;9.182;2024-03-06T05:26:08;8.40;70.40
20066;DHT22;10193;48.884;9.182;2024-03-06T05:28:35;8.40;70.40
20066;DHT22;10193;48.884;9.182;2024-03-06T05:31:15;8.40;70.50
20066;DHT22;10193;48.884;9.182;2024-03-06T05:33:43;8.30;70.70
20066;DHT22;10193;48.884;9.182;2024-03-06T05:36:10;8.30;70.60
20066;DHT22;10193;48.884;9.182;2024-03-06T05:38:38;8.30;70.70
20066;DHT22;10193;48.884;9.182;2024-03-06T05:41:05;8.30;70.70
20066;DHT22;10193;48.884;9.182;2024-03-06T05:43:31;8.30;70.90
20066;DHT22;10193;48.884;9.182;2024-03-06T05:45:58;8.30;70.90
20066;DHT22;10193;48.884;9.182;2024-03-06T05:48:27;8.30;71.00
20066;DHT22;10193;48.884;9.182;2024-03-06T05:50:53;8.20;71.00
20066;DHT22;10193;48.884;9.182;2024-03-06T05:53:20;8.20;71.00
20066;DHT22;10193;48.884;9.182;2024-03-06T05:55:47;8.20;71.10
20066;DHT22;10193;48.884;9.182;2024-03-06T05:58:14;8.20;71.20
20066;DHT22;10193;48.884;9.182;2024-03-06T06:00:41;8.20;71.30
20066;DHT22;10193;48.884;9.182;2024-03-06T06:03:08;8.20;71.40
20066;DHT22;10193;48.884;9.182;2024-03-06T06:05:38;8.20;71.40
20066;DHT22;10193;48.884;9.182;2024-03-06T06:08:05;8.20;71.60
20066;DHT22;10193;48.884;9.182;2024-03-06T06:10:32;8.10;71.70
20066;DHT22;10193;48.884;9.182;2024-03-06T06:12:59;8.20;72.10
20066;DHT22;10193;48.884;9.182;2024-03-06T06:15:25;8.20;72.00
20066;DHT22;10193;48.884;9.182;2024-03-06T06:17:52;8.20;72.20
20066;DHT22;10193;48.884;9.182;2024-03-06T06:20:19;8.20;72.20
20066;DHT22;10193;48.884;9.182;2024-03-06T06:22:47;8.20;72.20
20066;DHT22;10193;48.884;9.182;2024-03-06T06:25:13;8.20;72.10
20066;DHT22;10193;48.884;9.182;2024-03-06T06:27:41;8.20;72.10
20066;DHT22;10193;48.884;9.182;2024-03-06T06:30:08;8.20;72.20
20066;DHT22;10193;48.884;9.182;2024-03-06T06:32:36;8.20;72.30
20066;DHT22;10193;48.884;9.182;2024-03-06T06:35:04;8.20;72.40
20066;DHT22;10193;48.884;9.182;2024-03-06T06:37:31;8.20;72.50
20066;DHT22;10193;48.884;9.182;2024-03-06T06:39:59;8.20;72.50
20066;DHT22;10193;48.884;9.182;2024-03-06T06:42:28;8.30;72.70
20066;DHT22;10193;48.884;9.182;2024-03-06T06:44:54;8.30;72.80
20066;DHT22;10193;48.884;9.182;2024-03-06T06:47:21;8.30;72.90
20066;DHT22;10193;48.884;9.182;2024-03-06T06:49:48;8.30;72.80
20066;DHT22;10193;48.884;9.182;2024-03-06T06:52:15;8.30;72.80
20066;DHT22;10193;48.884;9.182;2024-03-06T06:54:41;8.30;72.80
20066;DHT22;10193;48.884;9.182;2024-03-06T06:57:09;8.30;72.90
20066;DHT22;10193;48.884;9.182;2024-03-06T06:59:36;8.30;73.00
20066;DHT22;10193;48.884;9.182;2024-03-06T07:02:03;8.30;73.00
20066;DHT22;10193;48.884;9.182;2024-03-06T07:04:29;8.30;73.10
20066;DHT22;10193;48.884;9.182;2024-03-06T07:06:56;8.30;73.20
20066;DHT22;10193;48.884;9.182;2024-03-06T07:09:23;8.40;73.20
20066;DHT22;10193;48.884;9.182;2024-03-06T07:11:50;8.30;73.00
20066;DHT22;10193;48.884;9.182;2024-03-06T07:14:18;8.40;73.10
20066;DHT22;10193;48.884;9.182;2024-03-06T07:16:45;8.30;73.10
20066;DHT22;10193;48.884;9.182;2024-03-06T07:19:12;8.30;73.10
20066;DHT22;10193;48.884;9.182;2024-03-06T07:21:39;8.30;73.10
20066;DHT22;10193;48.884;9.182;2024-03-06T07:24:06;8.30;73.30
20066;DHT22;10193;48.884;9.182;2024-03-06T07:26:33;8.30;73.30
20066;DHT22;10193;48.884;9.182;2024-03-06T07:29:00;8.30;73.40
20066;DHT22;10193;48.884;9.182;2024-03-06T07:31:29;8.30;73.40
20066;DHT22;10193;48.884;9.182;2024-03-06T07:33:56;8.30;73.50
20066;DHT22;10193;48.884;9.182;2024-03-06T07:36:22;8.20;73.70
20066;DHT22;10193;48.884;9.182;2024-03-06T07:38:49;8.30;73.80
20066;DHT22;10193;48.884;9.182;2024-03-06T07:41:16;8.30;73.90
20066;DHT22;10193;48.884;9.182;2024-03-06T07:43:42;8.30;74.00
20066;DHT22;10193;48.884;9.182;2024-03-06T07:46:09;8.30;74.00
20066;DHT22;10193;48.884;9.182;2024-03-06T07:48:41;8.30;74.30
20066;DHT22;10193;48.884;9.182;2024-03-06T07:51:09;8.30;74.40
20066;DHT22;10193;48.884;9.182;2024-03-06T07:53:36;8.30;74.60
20066;DHT22;10193;48.884;9.182;2024-03-06T07:56:03;8.30;74.70
20066;DHT22;10193;48.884;9.182;2024-03-06T07:58:29;8.30;75.00
20066;DHT22;10193;48.884;9.182;2024-03-06T08:00:56;8.30;75.00
20066;DHT22;10193;48.884;9.182;2024-03-06T08:03:24;8.30;75.30
20066;DHT22;10193;48.884;9.182;2024-03-06T08:05:53;8.40;75.60
20066;DHT22;10193;48.884;9.182;2024-03-06T08:08:19;8.40;75.70
20066;DHT22;10193;48.884;9.182;2024-03-06T08:10:46;8.40;75.60
20066;DHT22;10193;48.884;9.182;2024-03-06T08:13:13;8.40;75.60
20066;DHT22;10193;48.884;9.182;2024-03-06T08:15:40;8.40;75.70
20066;DHT22;10193;48.884;9.182;2024-03-06T08:18:06;8.50;75.80
20066;DHT22;10193;48.884;9.182;2024-03-06T08:20:33;8.50;76.00
20066;DHT22;10193;48.884;9.182;2024-03-06T08:23:01;8.50;76.00
20066;DHT22;10193;48.884;9.182;2024-03-06T08:25:27;8.50;76.00
20066;DHT22;10193;48.884;9.182;2024-03-06T08:27:54;8.50;76.00
20066;DHT22;10193;48.884;9.182;2024-03-06T08:30:22;8.60;76.20
20066;DHT22;10193;48.884;9.182;2024-03-06T08:32:48;8.60;76.30
20066;DHT22;10193;48.884;9.182;2024-03-06T08:35:15;8.60;76.30
20066;DHT22;10193;48.884;9.182;2024-03-06T08:37:44;8.60;76.40
20066;DHT22;10193;48.884;9.182;2024-03-06T08:40:12;8.60;76.60
20066;DHT22;10193;48.884;9.182;2024-03-06T08:42:41;8.70;76.80
20066;DHT22;10193;48.884;9.182;2024-03-06T08:45:08;8.70;76.70
20066;DHT22;10193;48.884;9.182;2024-03-06T08:47:35;8.70;76.60
20066;DHT22;10193;48.884;9.182;2024-03-06T08:50:01;8.70;76.50
20066;DHT22;10193;48.884;9.182;2024-03-06T08:52:27;8.70;76.50
20066;DHT22;10193;48.884;9.182;2024-03-06T08:54:54;8.70;76.50
20066;DHT22;10193;48.884;9.182;2024-03-06T08:57:22;8.70;76.60
20066;DHT22;10193;48.884;9.182;2024-03-06T08:59:49;8.80;76.90
20066;DHT22;10193;48.884;9.182;2024-03-06T09:02:18;8.80;76.90
20066;DHT22;10193;48.884;9.182;2024-03-06T09:04:45;8.80;76.90
20066;DHT22;10193;48.884;9.182;2024-03-06T09:07:13;8.80;76.90
20066;DHT22;10193;48.884;9.182;2024-03-06T09:09:40;8.80;76.90
20066;DHT22;10193;48.884;9.182;2024-03-06T09:12:08;8.80;76.90
20066;DHT22;10193;48.884;9.182;2024-03-06T09:14:37;8.80;76.90
20066;DHT22;10193;48.884;9.182;2024-03-06T09:17:05;8.80;77.00
20066;DHT22;10193;48.884;9.182;2024-03-06T09:19:32;8.80;77.20
20066;DHT22;10193;48.884;9.182;2024-03-06T09:21:59;8.80;77.20
20066;DHT22;10193;48.884;9.182;2024-03-06T09:24:26;8.80;77.10
20066;DHT22;10193;48.884;9.182;2024-03-06T09:26:53;8.80;77.00
20066;DHT22;10193;48.884;9.182;2024-03-06T09:29:20;8.90;78.00
20066;DHT22;10193;48.884;9.182;2024-03-06T09:31:48;8.90;77.20
20066;DHT22;10193;48.884;9.182;2024-03-06T09:34:15;8.90;77.20
20066;DHT22;10193;48.884;9.182;2024-03-06T09:36:46;8.90;77.40
20066;DHT22;10193;48.884;9.182;2024-03-06T09:39:14;8.90;77.40
20066;DHT22;10193;48.884;9.182;2024-03-06T09:41:42;8.90;77.40
20066;DHT22;10193;48.884;9.182;2024-03-06T09:44:09;9.00;77.40
20066;DHT22;10193;48.884;9.182;2024-03-06T09:46:36;8.90;77.30
20066;DHT22;10193;48.884;9.182;2024-03-06T09:49:05;9.00;77.50
20066;DHT22;10193;48.884;9.182;2024-03-06T09:51:34;9.00;77.80
20066;DHT22;10193;48.884;9.182;2024-03-06T09:54:02;9.00;77.80
20066;DHT22;10193;48.884;9.182;2024-03-06T09:56:29;9.00;77.90
20066;DHT22;10193;48.884;9.182;2024-03-06T09:58:57;9.10;78.10
20066;DHT22;10193;48.884;9.182;2024-03-06T10:01:25;9.10;78.30
20066;DHT22;10193;48.884;9.182;2024-03-06T10:03:53;9.10;78.40
20066;DHT22;10193;48.884;9.182;2024-03-06T10:06:21;9.20;78.60
20066;DHT22;10193;48.884;9.182;2024-03-06T10:08:48;9.20;78.70
20066;DHT22;10193;48.884;9.182;2024-03-06T10:11:15;9.30;78.80
20066;DHT22;10193;48.884;9.182;2024-03-06T10:13:42;9.30;78.70
20066;DHT22;10193;48.884;9.182;2024-03-06T10:16:09;9.30;78.40
20066;DHT22;10193;48.884;9.182;2024-03-06T10:18:37;9.40;78.50
20066;DHT22;10193;48.884;9.182;2024-03-06T10:21:04;9.40;78.50
20066;DHT22;10193;48.884;9.182;2024-03-06T10:23:34;9.40;78.30
20066;DHT22;10193;48.884;9.182;2024-03-06T10:26:02;9.40;78.10
20066;DHT22;10193;48.884;9.182;2024-03-06T10:28:29;9.40;78.10
20066;DHT22;10193;48.884;9.182;2024-03-06T10:31:04;9.40;78.30
20066;DHT22;10193;48.884;9.182;2024-03-06T10:33:32;9.40;78.30
20066;DHT22;10193;48.884;9.182;2024-03-06T10:36:00;9.40;79.20
20066;DHT22;10193;48.884;9.182;2024-03-06T10:38:29;9.40;78.50
20066;DHT22;10193;48.884;9.182;2024-03-06T10:41:00;9.50;78.70
20066;DHT22;10193;48.884;9.182;2024-03-06T10:43:28;9.50;78.70
20066;DHT22;10193;48.884;9.182;2024-03-06T10:46:00;9.50;78.50
20066;DHT22;10193;48.884;9.182;2024-03-06T10:48:28;9.50;78.60
20066;DHT22;10193;48.884;9.182;2024-03-06T10:50:55;9.60;78.90
20066;DHT22;10193;48.884;9.182;2024-03-06T10:53:23;9.60;78.90
20066;DHT22;10193;48.884;9.182;2024-03-06T10:55:52;9.60;78.90
20066;DHT22;10193;48.884;9.182;2024-03-06T10:58:22;9.60;79.00
20066;DHT22;10193;48.884;9.182;2024-03-06T11:00:51;9.60;78.90
20066;DHT22;10193;48.884;9.182;2024-03-06T11:03:18;9.60;78.80
20066;DHT22;10193;48.884;9.182;2024-03-06T11:05:45;9.60;78.60
20066;DHT22;10193;48.884;9.182;2024-03-06T11:08:16;9.70;78.60
20066;DHT22;10193;48.884;9.182;2024-03-06T11:10:43;9.70;78.40
20066;DHT22;10193;48.884;9.182;2024-03-06T11:13:23;9.60;78.30
20066;DHT22;10193;48.884;9.182;2024-03-06T11:15:52;9.60;78.50
20066;DHT22;10193;48.884;9.182;2024-03-06T11:18:44;9.60;78.60
20066;DHT22;10193;48.884;9.182;2024-03-06T11:21:31;9.60;78.70
20066;DHT22;10193;48.884;9.182;2024-03-06T11:24:18;9.50;78.50
20066;DHT22;10193;48.884;9.182;2024-03-06T11:26:49;9.60;78.70
20066;DHT22;10193;48.884;9.182;2024-03-06T11:29:19;9.60;78.80
20066;DHT22;10193;48.884;9.182;2024-03-06T11:32:03;9.60;79.00
20066;DHT22;10193;48.884;9.182;2024-03-06T11:34:33;9.50;79.10
20066;DHT22;10193;48.884;9.182;2024-03-06T11:37:03;9.60;79.30
20066;DHT22;10193;48.884;9.182;2024-03-06T11:39:35;9.60;79.30
20066;DHT22;10193;48.884;9.182;2024-03-06T11:42:03;9.60;79.30
20066;DHT22;10193;48.884;9.182;2024-03-06T11:44:32;9.60;79.40
20066;DHT22;10193;48.884;9.182;2024-03-06T11:46:59;9.60;79.50
20066;DHT22;10193;48.884;9.182;2024-03-06T11:49:27;9.60;79.80
20066;DHT22;10193;48.884;9.182;2024-03-06T11:51:59;9.70;80.30
20066;DHT22;10193;48.884;9.182;2024-03-06T11:54:26;9.70;80.60
20066;DHT22;10193;48.884;9.182;2024-03-06T11:56:55;9.70;80.80
20066;DHT22;10193;48.884;9.182;2024-03-06T11:59:22;9.80;81.00
20066;DHT22;10193;48.884;9.182;2024-03-06T12:01:51;9.80;80.70
20066;DHT22;10193;48.884;9.182;2024-03-06T12:04:19;9.90;80.80
20066;DHT22;10193;48.884;9.182;2024-03-06T12:06:46;9.90;80.70
20066;DHT22;10193;48.884;9.182;2024-03-06T12:09:13;10.00;79.60
20066;DHT22;10193;48.884;9.182;2024-03-06T12:11:41;10.00;79.50
20066;DHT22;10193;48.884;9.182;2024-03-06T12:14:13;10.00;79.50
20066;DHT22;10193;48.884;9.182;2024-03-06T12:16:40;10.00;79.20
20066;DHT22;10193;48.884;9.182;2024-03-06T12:19:08;10.10;79.20
20066;DHT22;10193;48.884;9.182;2024-03-06T12:21:35;10.10;79.10
20066;DHT22;10193;48.884;9.182;2024-03-06T12:24:04;10.10;79.10
20066;DHT22;10193;48.884;9.182;2024-03-06T12:26:30;10.00;79.00
20066;DHT22;10193;48.884;9.182;2024-03-06T12:29:04;10.10;79.00
20066;DHT22;10193;48.884;9.182;2024-03-06T12:31:31;10.10;78.70
20066;DHT22;10193;48.884;9.182;2024-03-06T12:33:59;10.10;78.70
20066;DHT22;10193;48.884;9.182;2024-03-06T12:36:29;10.10;78.70
20066;DHT22;10193;48.884;9.182;2024-03-06T12:38:58;10.10;78.60
20066;DHT22;10193;48.884;9.182;2024-03-06T12:41:25;10.10;78.50
20066;DHT22;10193;48.884;9.182;2024-03-06T12:43:53;10.10;78.50
20066;DHT22;10193;48.884;9.182;2024-03-06T12:46:20;10.10;78.40
20066;DHT22;10193;48.884;9.182;2024-03-06T12:48:47;10.00;78.40
20066;DHT22;10193;48.884;9.182;2024-03-06T12:51:13;10.00;78.40
20066;DHT22;10193;48.884;9.182;2024-03-06T12:53:41;10.00;78.30
20066;DHT22;10193;48.884;9.182;2024-03-06T12:56:09;10.00;78.40
20066;DHT22;10193;48.884;9.182;2024-03-06T12:58:36;10.00;78.40
20066;DHT22;10193;48.884;9.182;2024-03-06T13:01:03;10.00;78.50
20066;DHT22;10193;48.884;9.182;2024-03-06T13:03:30;10.00;78.50
20066;DHT22;10193;48.884;9.182;2024-03-06T13:05:57;9.90;79.50
20066;DHT22;10193;48.884;9.182;2024-03-06T13:08:24;9.90;79.40
20066;DHT22;10193;48.884;9.182;2024-03-06T13:10:52;9.90;79.50
20066;DHT22;10193;48.884;9.182;2024-03-06T13:13:19;9.90;79.60
20066;DHT22;10193;48.884;9.182;2024-03-06T13:15:46;9.90;79.70
20066;DHT22;10193;48.884;9.182;2024-03-06T13:18:13;9.90;79.80
20066;DHT22;10193;48.884;9.182;2024-03-06T13:20:41;9.80;79.80
20066;DHT22;10193;48.884;9.182;2024-03-06T13:23:08;9.80;79.90
20066;DHT22;10193;48.884;9.182;2024-03-06T13:25:34;9.80;80.00
20066;DHT22;10193;48.884;9.182;2024-03-06T13:28:03;9.80;80.20
20066;DHT22;10193;48.884;9.182;2024-03-06T13:30:30;9.80;80.20
20066;DHT22;10193;48.884;9.182;2024-03-06T13:32:57;9.80;80.40
20066;DHT22;10193;48.884;9.182;2024-03-06T13:35:24;9.80;80.50
20066;DHT22;10193;48.884;9.182;2024-03-06T13:37:51;9.90;80.60
20066;DHT22;10193;48.884;9.182;2024-03-06T13:40:19;9.90;80.50
20066;DHT22;10193;48.884;9.182;2024-03-06T13:42:46;9.90;80.30
20066;DHT22;10193;48.884;9.182;2024-03-06T13:45:14;9.90;80.30
20066;DHT22;10193;48.884;9.182;2024-03-06T13:47:42;9.80;80.10
20066;DHT22;10193;48.884;9.182;2024-03-06T13:50:10;9.80;80.10
20066;DHT22;10193;48.884;9.182;2024-03-06T13:52:37;9.80;80.10
20066;DHT22;10193;48.884;9.182;2024-03-06T13:55:04;9.90;80.50
20066;DHT22;10193;48.884;9.182;2024-03-06T13:57:31;9.80;80.40
20066;DHT22;10193;48.884;9.182;2024-03-06T14:00:00;9.80;80.40
20066;DHT22;10193;48.884;9.182;2024-03-06T14:02:28;9.80;80.50
20066;DHT22;10193;48.884;9.182;2024-03-06T14:04:54;9.80;80.50
20066;DHT22;10193;48.884;9.182;2024-03-06T14:07:21;9.80;80.60
20066;DHT22;10193;48.884;9.182;2024-03-06T14:09:49;9.80;80.70
20066;DHT22;10193;48.884;9.182;2024-03-06T14:12:15;9.80;80.70
20066;DHT22;10193;48.884;9.182;2024-03-06T14:14:42;9.80;80.90
20066;DHT22;10193;48.884;9.182;2024-03-06T14:17:10;9.80;80.80
20066;DHT22;10193;48.884;9.182;2024-03-06T14:19:39;9.70;80.90
20066;DHT22;10193;48.884;9.182;2024-03-06T14:22:06;9.70;80.90
20066;DHT22;10193;48.884;9.182;2024-03-06T14:24:32;9.70;80.70
20066;DHT22;10193;48.884;9.182;2024-03-06T14:26:59;9.70;81.00
20066;DHT22;10193;48.884;9.182;2024-03-06T14:29:26;9.70;81.10
20066;DHT22;10193;48.884;9.182;2024-03-06T14:31:53;9.70;81.20
20066;DHT22;10193;48.884;9.182;2024-03-06T14:34:20;9.70;81.50
20066;DHT22;10193;48.884;9.182;2024-03-06T14:36:50;9.60;81.60
20066;DHT22;10193;48.884;9.182;2024-03-06T14:39:17;9.60;81.80
20066;DHT22;10193;48.884;9.182;2024-03-06T14:41:43;9.70;81.90
20066;DHT22;10193;48.884;9.182;2024-03-06T14:44:12;9.60;81.70
20066;DHT22;10193;48.884;9.182;2024-03-06T14:46:40;9.70;81.70
20066;DHT22;10193;48.884;9.182;2024-03-06T14:49:07;9.70;81.70
20066;DHT22;10193;48.884;9.182;2024-03-06T14:51:34;9.60;81.70
20066;DHT22;10193;48.884;9.182;2024-03-06T14:54:02;9.60;81.80
20066;DHT22;10193;48.884;9.182;2024-03-06T14:56:29;9.60;82.10
20066;DHT22;10193;48.884;9.182;2024-03-06T14:58:56;9.60;82.30
20066;DHT22;10193;48.884;9.182;2024-03-06T15:01:23;9.60;82.50
20066;DHT22;10193;48.884;9.182;2024-03-06T15:03:50;9.60;82.50
20066;DHT22;10193;48.884;9.182;2024-03-06T15:06:17;9.60;82.50
20066;DHT22;10193;48.884;9.182;2024-03-06T15:08:44;9.60;82.60
20066;DHT22;10193;48.884;9.182;2024-03-06T15:11:12;9.60;82.60
20066;DHT22;10193;48.884;9.182;2024-03-06T15:13:39;9.60;82.50
20066;DHT22;10193;48.884;9.182;2024-03-06T15:16:06;9.60;82.60
20066;DHT22;10193;48.884;9.182;2024-03-06T15:18:34;9.60;82.50
20066;DHT22;10193;48.884;9.182;2024-03-06T15:21:01;9.60;82.70
20066;DHT22;10193;48.884;9.182;2024-03-06T15:23:28;9.60;82.70
20066;DHT22;10193;48.884;9.182;2024-03-06T15:25:56;9.70;82.80
20066;DHT22;10193;48.884;9.182;2024-03-06T15:28:24;9.70;82.80
20066;DHT22;10193;48.884;9.182;2024-03-06T15:30:51;9.60;82.70
20066;DHT22;10193;48.884;9.182;2024-03-06T15:33:18;9.70;82.90
20066;DHT22;10193;48.884;9.182;2024-03-06T15:35:45;9.70;82.90
20066;DHT22;10193;48.884;9.182;2024-03-06T15:38:11;9.60;82.80
20066;DHT22;10193;48.884;9.182;2024-03-06T15:40:38;9.70;83.00
20066;DHT22;10193;48.884;9.182;2024-03-06T15:43:05;9.70;83.00
20066;DHT22;10193;48.884;9.182;2024-03-06T15:45:33;9.70;83.10
20066;DHT22;10193;48.884;9.182;2024-03-06T15:48:00;9.70;83.10